메인 페이지
METAR-TAF:

METAR-TAF

공항 :

Grider Field

Pine Bluff, 아칸소, 미국

위도: 34-10-30N, 경도: 091-56-05W, 고도: 63m

현재 날씨관측

예보는 45분 전, 13:53시(UTC)에 발표되었습니다.
8kt
온도 22°C
습도 73%
기압 1018 hPa
시정: 16.1km
맑음

METAR: KPBF 291353Z AUTO 35008KT 10SM CLR 22/17 A3006 RMK AO2 SLP179 T02170167

시각: 09:38 (14:38 UTC)

예보

예보는 3 시간 18분 전, 11:20시(UTC)에 발표되었습니다.
예보 대상 시간: 29일 12시부터 30일 12시까지 (UTC)
여러 방향의 바람 4kt
시정: 10km
고도 2000ft 상공 구름 보통
일시적
29일 12시부터 29일 15시까지 (UTC)
고도 2500ft 상공 구름 많음
29일 1600시부터 (UTC)
8kt, 순간 최대 풍속 15kt
시정: 10km
고도 4000ft 상공 구름 보통
30일 0000시부터 (UTC)
5kt
시정: 10km
맑음

TAF: KPBF 291120Z 2912/3012 VRB04KT P6SM SCT020 TEMPO 2912/2915 BKN025 FM291600 36008G15KT P6SM SCT040 FM300000 36005KT P6SM SKC

4,000개 이상의 공항 관측 자료 및 예보 (METAR 및 TAF 보고).

지도상에서 검색 가능한 기상관측소가 노란 점과 빨간 점으로 표시되어 있습니다.

기상관측소 명을 보려면 표시 위로 마우스를 이동하세요.

날씨 관측과 예보를 보려면 클릭하세요.

지도 변경 : 확대하려면 엑스 표시가 있는 녹색 버튼, 축소하려면 빼기 표시가 있는 녹색 버튼, 다음 페이지의 지도를 보려면 녹색 화살표를 클릭하세요.


METAR-TAF: